Time;durP1;ratioP1;P1;durP2;ratioP2;P2;SDS_P1;SDS_P2;PMS_P1;PMS_P2;Temp;Humidity;BMP_temperature;BMP_pressure;BME280_temperature;BME280_humidity;BME280_pressure;Samples;Min_cycle;Max_cycle;Signal;HPM_P1;HPM_P2
2022/09/14 00:01:38;;;;;;;6.97;1.70;;;;;;;16.95;67.19;100752.59;4932288;29;20088;-70
2022/09/14 00:04:13;;;;;;;4.43;1.35;;;;;;;16.90;67.20;100752.84;4933045;28;20048;-70
2022/09/14 00:06:42;;;;;;;9.27;1.75;;;;;;;16.83;67.37;100740.84;4930241;28;20048;-70
2022/09/14 00:09:20;;;;;;;5.55;1.45;;;;;;;16.82;67.24;100734.66;4931088;29;20043;-70
2022/09/14 00:11:50;;;;;;;9.52;1.70;;;;;;;16.81;67.31;100745.41;4932136;28;20542;-69
2022/09/14 00:14:18;;;;;;;10.25;1.95;;;;;;;16.79;67.54;100748.13;4931660;28;20048;-69
2022/09/14 00:16:46;;;;;;;6.30;1.70;;;;;;;16.76;67.75;100737.69;4933235;28;20104;-69
2022/09/14 00:19:22;;;;;;;7.88;1.50;;;;;;;16.79;67.71;100731.31;4929545;28;20068;-70
2022/09/14 00:21:56;;;;;;;6.40;1.65;;;;;;;16.80;67.49;100730.38;4933718;28;20647;-69
2022/09/14 00:24:26;;;;;;;;;;;;;;;16.76;67.71;100722.56;4931497;28;20431;-69
2022/09/14 00:26:53;;;;;;;6.55;1.50;;;;;;;16.78;67.83;100725.16;4932201;28;19927;-69
2022/09/14 00:29:20;;;;;;;6.32;1.40;;;;;;;16.77;67.82;100721.59;4941398;28;20044;-69
2022/09/14 00:31:47;;;;;;;9.35;1.55;;;;;;;16.79;67.62;100710.00;4933117;28;20095;-69
2022/09/14 00:34:16;;;;;;;11.88;2.00;;;;;;;16.76;67.52;100719.88;4932940;28;20040;-70
2022/09/14 00:36:47;;;;;;;4.38;1.10;;;;;;;16.74;67.62;100715.59;4933392;29;20047;-70
2022/09/14 00:39:17;;;;;;;13.20;1.40;;;;;;;16.73;67.62;100703.25;4930394;28;20049;-70
2022/09/14 00:41:47;;;;;;;5.22;1.50;;;;;;;16.75;67.17;100698.69;4930246;28;20052;-70
2022/09/14 00:44:14;;;;;;;8.13;1.42;;;;;;;16.72;67.32;100694.41;4932413;29;20052;-70
2022/09/14 00:46:50;;;;;;;8.77;1.60;;;;;;;16.69;67.82;100694.59;4931487;28;20047;-70
2022/09/14 00:49:33;;;;;;;5.68;1.58;;;;;;;16.71;67.32;100683.84;4920485;29;20037;-70
2022/09/14 00:52:07;;;;;;;6.22;1.17;;;;;;;16.69;67.36;100681.28;4932076;29;20048;-69
2022/09/14 00:55:01;;;;;;;5.85;1.45;;;;;;;16.67;67.38;100679.66;4931659;28;20052;-69
2022/09/14 00:57:36;;;;;;;2.42;0.82;;;;;;;16.66;67.42;100675.28;4932783;28;20083;-70
2022/09/14 01:00:08;;;;;;;7.95;1.35;;;;;;;16.63;67.78;100668.34;4930433;28;20076;-69
2022/09/14 01:02:36;;;;;;;6.68;1.35;;;;;;;16.63;67.69;100664.81;4931982;28;20469;-69
2022/09/14 01:05:09;;;;;;;6.15;1.27;;;;;;;16.61;67.80;100665.75;4931746;29;20047;-69
2022/09/14 01:08:18;;;;;;;4.97;1.20;;;;;;;16.59;67.74;100677.44;4930696;28;20103;-70
2022/09/14 01:11:15;;;;;;;5.72;1.20;;;;;;;16.65;68.03;100670.91;4928922;29;20123;-69
2022/09/14 01:14:02;;;;;;;4.95;1.13;;;;;;;16.65;67.84;100665.59;4930138;29;20048;-70
2022/09/14 01:16:59;;;;;;;6.20;1.30;;;;;;;16.64;67.57;100662.03;4931797;28;20044;-70
2022/09/14 01:19:54;;;;;;;6.35;1.30;;;;;;;16.58;67.50;100663.25;4931322;28;20084;-70
2022/09/14 01:22:33;;;;;;;7.45;1.27;;;;;;;16.51;67.71;100661.91;4926984;29;20127;-70
2022/09/14 01:25:38;;;;;;;7.53;1.30;;;;;;;16.42;67.99;100657.13;4931160;29;20473;-69
2022/09/14 01:28:16;;;;;;;;;;;;;;;16.37;68.20;100669.84;4930933;29;20036;-68
2022/09/14 01:30:45;;;;;;;5.95;0.93;;;;;;;16.35;68.66;100664.59;4926906;29;19927;-68
2022/09/14 01:33:26;;;;;;;4.88;1.30;;;;;;;16.34;68.55;100654.91;4924988;29;20051;-69
2022/09/14 01:35:59;;;;;;;5.63;1.23;;;;;;;16.34;68.32;100662.03;4932350;28;20044;-68
2022/09/14 01:38:50;;;;;;;4.93;1.00;;;;;;;16.21;69.03;100659.22;4927078;29;20136;-68
2022/09/14 01:41:28;;;;;;;5.88;1.27;;;;;;;16.14;69.39;100656.06;4929510;29;20489;-68
2022/09/14 01:44:13;;;;;;;6.65;1.58;;;;;;;16.05;69.85;100657.41;4932822;28;20044;-69
2022/09/14 01:46:50;;;;;;;4.20;0.90;;;;;;;15.98;70.40;100656.91;4929110;28;20096;-69
2022/09/14 01:49:29;;;;;;;7.00;1.10;;;;;;;15.93;70.83;100643.03;4925006;29;20040;-72
2022/09/14 01:52:06;;;;;;;5.15;0.90;;;;;;;15.90;70.78;100653.81;4931062;28;20528;-70
2022/09/14 01:54:53;;;;;;;3.55;0.77;;;;;;;15.86;71.13;100644.31;4932871;28;20123;-71
2022/09/14 01:57:32;;;;;;;8.40;1.42;;;;;;;15.86;71.15;100648.75;4929096;29;20057;-70
2022/09/14 02:00:12;;;;;;;5.05;1.00;;;;;;;15.76;71.69;100643.94;4930925;29;20032;-70
2022/09/14 02:02:48;;;;;;;6.28;1.10;;;;;;;15.71;72.40;100645.13;4930516;29;20062;-71
2022/09/14 02:05:25;;;;;;;9.43;1.00;;;;;;;15.63;72.50;100641.09;4930693;28;20147;-71
2022/09/14 02:07:53;;;;;;;4.85;1.10;;;;;;;15.64;72.83;100632.19;4926837;29;20535;-71
2022/09/14 02:10:22;;;;;;;5.15;1.00;;;;;;;15.65;73.13;100627.72;4922678;29;20130;-70
2022/09/14 02:12:52;;;;;;;4.18;0.90;;;;;;;15.65;73.12;100614.44;4926004;29;20096;-71
2022/09/14 02:15:22;;;;;;;4.53;1.08;;;;;;;15.63;73.32;100609.22;4932649;28;20567;-70
2022/09/14 02:17:49;;;;;;;5.20;1.13;;;;;;;15.62;73.09;100612.81;4929282;28;20047;-71
2022/09/14 02:20:57;;;;;;;4.82;1.08;;;;;;;15.64;73.04;100615.38;4936273;28;20061;-71
2022/09/14 02:23:25;;;;;;;6.57;1.27;;;;;;;15.68;72.91;100623.09;4931794;28;20072;-71
2022/09/14 02:25:53;;;;;;;4.30;1.27;;;;;;;15.68;72.66;100625.75;4932663;28;20036;-71
2022/09/14 02:28:20;;;;;;;8.73;1.10;;;;;;;15.62;73.00;100617.25;4947761;28;20124;-71
2022/09/14 02:31:03;;;;;;;5.60;1.10;;;;;;;15.56;72.83;100625.56;4931513;28;20037;-69
2022/09/14 02:33:43;;;;;;;5.45;1.10;;;;;;;15.41;73.55;100633.44;4913957;29;20731;-69
2022/09/14 02:36:27;;;;;;;6.88;1.13;;;;;;;15.24;74.37;100626.38;4924513;29;20040;-69
2022/09/14 02:39:24;;;;;;;3.88;1.30;;;;;;;15.12;75.31;100630.50;4932636;28;20085;-69
2022/09/14 02:42:25;;;;;;;7.35;1.38;;;;;;;15.11;76.63;100636.75;4897627;29;20061;-69
2022/09/14 02:45:31;;;;;;;5.65;1.17;;;;;;;15.11;77.44;100633.25;4925441;29;20048;-69
2022/09/14 02:48:28;;;;;;;7.22;1.30;;;;;;;15.13;77.92;100637.53;4884654;28;20057;-69
2022/09/14 02:51:22;;;;;;;6.10;1.30;;;;;;;15.14;78.44;100639.25;4921651;28;20041;-69
2022/09/14 02:54:04;;;;;;;8.10;1.60;;;;;;;15.10;78.50;100637.72;4927080;29;20086;-69
2022/09/14 02:56:33;;;;;;;5.18;1.13;;;;;;;15.04;79.15;100646.88;4929284;29;20097;-69
2022/09/14 02:59:00;;;;;;;6.20;1.00;;;;;;;14.98;79.22;100635.72;4926193;28;20051;-69
2022/09/14 03:01:28;;;;;;;6.55;1.33;;;;;;;14.88;79.88;100636.19;4922513;29;20095;-70
2022/09/14 03:03:55;;;;;;;5.13;1.48;;;;;;;14.80;80.16;100632.19;4931221;28;20508;-69
2022/09/14 03:06:22;;;;;;;11.77;1.60;;;;;;;14.70;80.73;100635.34;4929504;29;20048;-70
2022/09/14 03:08:50;;;;;;;6.15;1.23;;;;;;;14.62;81.33;100634.84;4930715;29;20053;-70
2022/09/14 03:11:17;;;;;;;4.03;1.20;;;;;;;14.57;81.44;100643.03;4933196;28;20036;-70
2022/09/14 03:13:44;;;;;;;6.15;1.35;;;;;;;14.47;81.96;100639.13;4938738;28;20073;-70
2022/09/14 03:16:14;;;;;;;8.93;1.10;;;;;;;14.41;82.21;100640.28;4932569;28;20051;-70
2022/09/14 03:18:42;;;;;;;5.22;1.50;;;;;;;14.35;82.92;100631.75;4933300;28;20107;-72
2022/09/14 03:21:14;;;;;;;7.25;1.60;;;;;;;14.28;83.29;100644.47;4931477;29;20048;-71
2022/09/14 03:23:46;;;;;;;9.02;1.55;;;;;;;14.27;83.96;100640.97;4948289;28;20048;-72
2022/09/14 03:26:22;;;;;;;8.15;1.80;;;;;;;14.20;84.25;100636.88;4933362;29;20104;-72
2022/09/14 03:28:51;;;;;;;9.68;1.65;;;;;;;14.22;85.03;100637.66;4933628;28;20052;-72
2022/09/14 03:31:19;;;;;;;10.13;1.70;;;;;;;14.19;85.17;100632.53;4933854;28;20080;-71
2022/09/14 03:33:55;;;;;;;3.72;1.52;;;;;;;14.21;85.86;100629.78;4933035;28;20044;-72
2022/09/14 03:36:25;;;;;;;6.00;1.48;;;;;;;14.21;85.85;100625.34;4934293;29;20595;-72
2022/09/14 03:38:55;;;;;;;5.53;1.65;;;;;;;14.11;85.93;100619.66;4932184;29;20094;-71
2022/09/14 03:41:24;;;;;;;6.00;1.92;;;;;;;14.09;86.45;100624.16;4933282;28;20048;-70
2022/09/14 03:43:51;;;;;;;6.88;1.70;;;;;;;14.09;86.81;100618.84;4932713;29;20075;-70
2022/09/14 03:46:22;;;;;;;6.47;2.00;;;;;;;14.06;87.17;100619.00;4932672;28;20085;-70
2022/09/14 03:48:51;;;;;;;9.48;2.13;;;;;;;14.05;87.52;100609.31;4934913;29;20588;-71
2022/09/14 03:51:18;;;;;;;4.70;1.83;;;;;;;14.04;87.75;100602.28;4932433;28;20044;-70
2022/09/14 03:53:46;;;;;;;10.43;2.08;;;;;;;14.02;87.88;100605.97;4928842;29;20104;-70
2022/09/14 03:56:17;;;;;;;6.47;2.03;;;;;;;13.95;87.85;100603.63;4933127;28;20104;-71
2022/09/14 03:58:46;;;;;;;6.13;1.70;;;;;;;13.93;88.23;100600.19;4932427;28;20155;-71
2022/09/14 04:01:17;;;;;;;10.98;2.00;;;;;;;13.87;88.51;100595.19;4932464;28;20096;-71
2022/09/14 04:03:45;;;;;;;8.30;1.75;;;;;;;13.88;88.65;100603.97;4931035;29;20877;-71
2022/09/14 04:06:16;;;;;;;5.50;1.90;;;;;;;13.84;89.04;100594.47;4931506;28;20124;-71
2022/09/14 04:08:45;;;;;;;6.75;1.85;;;;;;;13.82;89.32;100582.16;4932343;28;20103;-70
2022/09/14 04:11:16;;;;;;;9.50;2.05;;;;;;;13.84;89.90;100583.88;4931117;28;20152;-70
2022/09/14 04:13:45;;;;;;;5.53;1.40;;;;;;;13.89;90.13;100584.50;4932303;29;20571;-72
2022/09/14 04:16:14;;;;;;;7.03;1.55;;;;;;;13.89;89.86;100585.34;4933638;28;20127;-71
2022/09/14 04:18:42;;;;;;;7.43;1.92;;;;;;;13.89;90.12;100581.84;4930908;28;20817;-71
2022/09/14 04:21:14;;;;;;;10.90;2.15;;;;;;;13.88;90.01;100575.72;4930070;28;20051;-71
2022/09/14 04:23:41;;;;;;;5.95;1.80;;;;;;;13.89;90.28;100584.50;4925494;29;20070;-71
2022/09/14 04:26:30;;;;;;;9.32;1.90;;;;;;;13.89;90.16;100572.09;4929363;28;20050;-71
2022/09/14 04:28:58;;;;;;;5.45;1.50;;;;;;;13.88;90.36;100565.13;4932565;28;20602;-71
2022/09/14 04:31:28;;;;;;;6.47;1.50;;;;;;;13.93;90.71;100555.13;4931742;28;20136;-71
2022/09/14 04:33:56;;;;;;;9.88;2.25;;;;;;;13.95;90.85;100550.63;4932256;29;20068;-71
2022/09/14 04:36:29;;;;;;;7.10;2.05;;;;;;;14.01;90.96;100551.25;4932507;28;20052;-70
2022/09/14 04:38:59;;;;;;;7.35;1.80;;;;;;;14.01;90.69;100545.94;4932009;28;20219;-70
2022/09/14 04:41:29;;;;;;;8.05;1.80;;;;;;;14.02;90.86;100550.31;4933849;28;20044;-71
2022/09/14 04:43:57;;;;;;;7.53;1.80;;;;;;;14.02;90.62;100550.31;4928098;29;20542;-70
2022/09/14 04:46:31;;;;;;;7.47;1.80;;;;;;;14.05;90.83;100550.16;4931563;28;20064;-70
2022/09/14 04:48:58;;;;;;;;;;;;;;;14.02;90.41;100547.66;4933720;28;20047;-70
2022/09/14 04:51:29;;;;;;;8.57;1.70;;;;;;;14.01;90.64;100548.59;4933899;29;20017;-70
2022/09/14 04:53:58;;;;;;;6.53;2.10;;;;;;;14.03;90.73;100541.44;4932149;28;20869;-70
2022/09/14 04:56:28;;;;;;;8.98;2.05;;;;;;;14.05;91.00;100544.88;4934271;29;20122;-70
2022/09/14 04:58:58;;;;;;;9.07;1.63;;;;;;;14.09;90.90;100541.97;4932873;28;20500;-70
2022/09/14 05:01:33;;;;;;;6.25;1.92;;;;;;;14.13;90.90;100540.91;4931778;28;20541;-71
2022/09/14 05:04:01;;;;;;;5.07;1.38;;;;;;;14.14;90.56;100534.66;4932583;28;20048;-70
2022/09/14 05:06:34;;;;;;;8.00;1.73;;;;;;;14.15;90.24;100532.88;4933368;28;20044;-70
2022/09/14 05:09:05;;;;;;;4.28;1.33;;;;;;;14.10;90.03;100541.06;4928042;29;20068;-70
2022/09/14 05:11:34;;;;;;;6.85;1.70;;;;;;;14.07;89.75;100540.34;4925611;29;20046;-70
2022/09/14 05:14:03;;;;;;;6.65;1.85;;;;;;;14.08;90.14;100534.97;4934502;28;20048;-70
2022/09/14 05:16:35;;;;;;;5.80;1.42;;;;;;;14.09;90.25;100536.69;4933853;28;20044;-70
2022/09/14 05:19:10;;;;;;;6.50;1.60;;;;;;;14.09;90.50;100534.03;4931635;28;20056;-70
2022/09/14 05:21:37;;;;;;;5.68;1.30;;;;;;;14.07;90.54;100532.41;4933594;29;20441;-70
2022/09/14 05:24:13;;;;;;;7.93;1.92;;;;;;;14.03;90.25;100533.47;4928015;29;20057;-70
2022/09/14 05:26:45;;;;;;;8.65;1.75;;;;;;;14.01;90.41;100537.97;4921162;29;20036;-70
2022/09/14 05:29:15;;;;;;;6.45;1.63;;;;;;;14.01;90.51;100540.63;4926742;29;20575;-70
2022/09/14 05:31:43;;;;;;;5.55;1.50;;;;;;;14.01;90.38;100540.63;4928841;29;20500;-70
2022/09/14 05:34:13;;;;;;;8.00;2.08;;;;;;;13.97;90.39;100542.59;4928222;28;20975;-70
2022/09/14 05:36:40;;;;;;;7.63;2.00;;;;;;;13.98;90.78;100539.00;4930407;29;20048;-70
2022/09/14 05:39:09;;;;;;;6.03;1.90;;;;;;;14.00;91.05;100538.91;4930369;29;20500;-70
2022/09/14 05:41:37;;;;;;;5.47;1.75;;;;;;;13.98;91.14;100546.94;4930062;28;20543;-70
2022/09/14 05:44:05;;;;;;;4.20;1.42;;;;;;;13.97;91.44;100547.88;4913705;29;20072;-70
2022/09/14 05:46:32;;;;;;;7.20;1.70;;;;;;;13.98;91.67;100541.66;4923921;28;20076;-70
2022/09/14 05:49:02;;;;;;;9.63;1.70;;;;;;;13.98;91.81;100539.88;4932166;28;20132;-69
2022/09/14 05:51:29;;;;;;;6.72;1.60;;;;;;;13.98;91.53;100544.31;4929321;29;20066;-70
2022/09/14 05:53:58;;;;;;;8.07;1.77;;;;;;;13.96;91.69;100541.75;4920181;28;20080;-70
2022/09/14 05:56:28;;;;;;;10.80;1.80;;;;;;;13.98;91.56;100549.59;4923422;29;20041;-69
2022/09/14 05:58:57;;;;;;;5.15;1.40;;;;;;;14.00;91.67;100553.03;4913975;29;20123;-70
2022/09/14 06:01:28;;;;;;;9.68;1.50;;;;;;;14.02;91.22;100558.25;4930180;28;20044;-69
2022/09/14 06:03:59;;;;;;;7.10;1.60;;;;;;;14.01;91.12;100557.41;4931569;28;20058;-69
2022/09/14 06:06:26;;;;;;;6.22;1.30;;;;;;;14.04;91.12;100559.03;4937688;28;20531;-69
2022/09/14 06:08:56;;;;;;;4.45;1.50;;;;;;;14.06;91.21;100568.63;4932358;28;20072;-70
2022/09/14 06:11:27;;;;;;;6.93;1.55;;;;;;;14.05;91.25;100563.41;4933200;28;20579;-70
2022/09/14 06:13:55;;;;;;;4.03;1.35;;;;;;;14.07;91.37;100565.03;4929556;28;20044;-70
2022/09/14 06:16:25;;;;;;;5.15;1.48;;;;;;;14.10;91.86;100564.91;4944588;28;20571;-70
2022/09/14 06:18:56;;;;;;;9.55;2.15;;;;;;;14.12;92.21;100565.69;4951910;28;20527;-70
2022/09/14 06:21:31;;;;;;;6.18;1.80;;;;;;;14.12;92.25;100560.41;4940846;28;20889;-70
2022/09/14 06:24:00;;;;;;;5.50;1.63;;;;;;;14.14;92.42;100562.97;4932583;29;20048;-70
2022/09/14 06:26:27;;;;;;;8.15;1.90;;;;;;;14.17;92.46;100560.16;4933016;28;20543;-70
2022/09/14 06:28:56;;;;;;;4.25;1.63;;;;;;;14.20;92.29;100559.16;4931245;28;20056;-70
2022/09/14 06:31:24;;;;;;;7.10;1.80;;;;;;;14.19;92.26;100547.69;4930823;29;20642;-70
2022/09/14 06:33:52;;;;;;;4.53;1.38;;;;;;;14.19;91.59;100550.34;4932691;28;20040;-70
2022/09/14 06:36:23;;;;;;;4.47;1.48;;;;;;;14.17;91.29;100554.88;4933080;28;20182;-69
2022/09/14 06:38:51;;;;;;;10.07;2.00;;;;;;;14.13;91.32;100554.16;4932459;28;20397;-70
2022/09/14 06:41:27;;;;;;;10.88;1.88;;;;;;;14.08;91.63;100560.63;4930354;29;20498;-69
2022/09/14 06:43:58;;;;;;;5.32;1.73;;;;;;;14.07;91.96;100551.78;4932490;28;20048;-69
2022/09/14 06:46:29;;;;;;;6.72;1.80;;;;;;;14.04;91.95;100553.75;4936391;28;20487;-69
2022/09/14 06:49:06;;;;;;;10.38;1.95;;;;;;;14.02;92.08;100548.53;4934660;28;20579;-69
2022/09/14 06:51:39;;;;;;;7.25;1.70;;;;;;;14.01;92.04;100548.59;4935885;28;20040;-70
2022/09/14 06:54:10;;;;;;;8.70;2.70;;;;;;;13.98;92.11;100549.59;4934725;28;20152;-70
2022/09/14 06:56:40;;;;;;;5.75;2.03;;;;;;;14.01;92.50;100556.53;4934709;28;20040;-70
2022/09/14 06:59:09;;;;;;;5.53;1.60;;;;;;;14.05;92.20;100544.88;4935807;28;20095;-70
2022/09/14 07:01:38;;;;;;;8.45;2.35;;;;;;;14.04;92.06;100540.50;4935190;28;20143;-70
2022/09/14 07:04:06;;;;;;;6.63;2.42;;;;;;;14.03;91.76;100542.31;4935496;28;20056;-70
2022/09/14 07:06:48;;;;;;;7.55;2.00;;;;;;;14.06;92.21;100546.59;4935612;28;20075;-70
2022/09/14 07:09:18;;;;;;;12.40;2.80;;;;;;;14.08;92.25;100534.97;4917133;29;20876;-69
2022/09/14 07:11:45;;;;;;;7.70;2.25;;;;;;;14.10;92.30;100543.69;4917655;29;20512;-70
2022/09/14 07:14:12;;;;;;;13.05;2.70;;;;;;;14.12;92.36;100539.19;4920787;29;20040;-70
2022/09/14 07:16:39;;;;;;;10.90;3.10;;;;;;;14.18;92.58;100542.44;4935693;28;20048;-70
2022/09/14 07:19:12;;;;;;;9.27;2.90;;;;;;;14.27;93.05;100545.50;4935040;29;20075;-70
2022/09/14 07:21:40;;;;;;;10.18;2.80;;;;;;;14.34;92.58;100539.88;4935831;28;20048;-70
2022/09/14 07:24:09;;;;;;;9.23;2.67;;;;;;;14.37;92.49;100551.19;4935843;28;20056;-70
2022/09/14 07:26:40;;;;;;;6.18;2.20;;;;;;;14.37;92.19;100551.19;4936067;28;20044;-70
2022/09/14 07:29:14;;;;;;;6.60;2.60;;;;;;;14.42;91.65;100553.59;4948563;28;20108;-71
2022/09/14 07:31:46;;;;;;;8.25;2.60;;;;;;;14.43;90.91;100550.91;4936426;28;20650;-70
2022/09/14 07:34:14;;;;;;;8.07;3.08;;;;;;;14.43;91.51;100550.91;4935449;28;20132;-70
2022/09/14 07:36:42;;;;;;;8.73;2.60;;;;;;;14.47;91.55;100550.72;4935709;28;20397;-70
2022/09/14 07:39:13;;;;;;;6.43;2.45;;;;;;;14.52;91.01;100554.00;4935132;28;20112;-70
2022/09/14 07:41:42;;;;;;;4.32;2.33;;;;;;;14.48;91.05;100549.78;4935255;28;20088;-70
2022/09/14 07:44:14;;;;;;;5.85;2.38;;;;;;;14.43;90.23;100545.59;4935089;28;20576;-69
2022/09/14 07:46:43;;;;;;;7.75;2.53;;;;;;;14.38;90.75;100546.75;4935195;28;20457;-69
2022/09/14 07:49:14;;;;;;;9.85;2.30;;;;;;;14.34;91.12;100539.88;4934955;28;20128;-70
2022/09/14 07:51:42;;;;;;;11.73;2.80;;;;;;;14.29;91.32;100538.31;4935237;29;20075;-69
2022/09/14 07:54:13;;;;;;;5.65;2.05;;;;;;;14.25;91.42;100535.91;4931330;29;20040;-70
2022/09/14 07:56:42;;;;;;;5.47;2.70;;;;;;;14.24;92.16;100540.34;4935332;28;20210;-70
2022/09/14 07:59:12;;;;;;;7.43;2.92;;;;;;;14.26;92.39;100534.97;4933580;28;20048;-69
2022/09/14 08:01:59;;;;;;;7.88;2.50;;;;;;;14.25;92.49;100527.94;4934188;28;20040;-69
2022/09/14 08:04:26;;;;;;;7.65;3.10;;;;;;;14.28;92.67;100533.97;4935286;28;20044;-69
2022/09/14 08:06:53;;;;;;;10.50;2.83;;;;;;;14.28;92.46;100518.06;4934939;28;20036;-69
2022/09/14 08:09:21;;;;;;;13.88;3.80;;;;;;;14.30;93.26;100520.63;4933515;28;20036;-70
2022/09/14 08:11:48;;;;;;;8.63;3.20;;;;;;;14.37;93.47;100527.31;4923799;28;20050;-70
2022/09/14 08:14:16;;;;;;;7.40;3.15;;;;;;;14.42;93.52;100519.13;4935415;29;20044;-69
2022/09/14 08:16:43;;;;;;;7.32;3.28;;;;;;;14.44;93.35;100517.25;4934777;28;20131;-70
2022/09/14 08:19:17;;;;;;;8.07;3.35;;;;;;;14.52;93.47;100514.22;4932594;28;20834;-70
2022/09/14 08:21:44;;;;;;;9.23;3.20;;;;;;;14.58;92.85;100514.75;4934339;28;20115;-70
2022/09/14 08:24:19;;;;;;;7.63;3.10;;;;;;;14.56;91.45;100510.44;4931274;28;20405;-70
2022/09/14 08:26:47;;;;;;;6.38;3.70;;;;;;;14.49;91.37;100512.59;4934931;28;20049;-70
2022/09/14 08:29:17;;;;;;;15.23;3.67;;;;;;;14.44;92.03;100514.63;4920409;28;20045;-70
2022/09/14 08:31:46;;;;;;;4.70;3.10;;;;;;;14.47;92.49;100510.94;4930067;29;20051;-70
2022/09/14 08:34:16;;;;;;;6.60;3.55;;;;;;;14.52;92.73;100514.22;4932492;29;20045;-71
2022/09/14 08:36:45;;;;;;;9.40;3.15;;;;;;;14.54;92.71;100512.34;4934763;28;20048;-71
2022/09/14 08:39:15;;;;;;;7.40;3.10;;;;;;;14.58;92.77;100516.53;4933908;28;20047;-70
2022/09/14 08:41:42;;;;;;;7.93;3.25;;;;;;;14.61;92.09;100511.09;4933742;29;20038;-70
2022/09/14 08:44:39;;;;;;;5.75;3.10;;;;;;;14.55;91.43;100517.56;4934270;29;20416;-70
2022/09/14 08:47:19;;;;;;;7.85;3.50;;;;;;;14.51;92.12;100521.31;4915785;29;20045;-70
2022/09/14 08:50:27;;;;;;;8.75;3.80;;;;;;;14.53;91.87;100514.13;4931840;29;20067;-70
2022/09/14 08:52:54;;;;;;;6.63;3.60;;;;;;;14.51;91.64;100515.16;4922278;29;20046;-70
2022/09/14 08:55:52;;;;;;;6.40;3.35;;;;;;;14.50;91.31;100516.09;4934370;28;20120;-70
2022/09/14 08:59:00;;;;;;;8.70;3.45;;;;;;;14.49;91.22;100512.59;4934479;28;21092;-71
2022/09/14 09:01:49;;;;;;;12.52;3.90;;;;;;;14.48;92.11;100517.97;4932235;28;20058;-71
2022/09/14 09:04:52;;;;;;;8.52;3.80;;;;;;;14.53;92.82;100522.09;4931106;28;20664;-71
2022/09/14 09:07:48;;;;;;;9.57;4.22;;;;;;;14.57;92.17;100521.00;4930236;29;20044;-71
2022/09/14 09:10:17;;;;;;;8.07;4.15;;;;;;;14.56;92.68;100524.59;4932043;28;20102;-71
2022/09/14 09:12:54;;;;;;;12.90;4.10;;;;;;;14.60;92.15;100528.78;4928137;28;20148;-71
2022/09/14 09:15:38;;;;;;;10.63;3.75;;;;;;;14.55;91.49;100533.47;4927684;29;20040;-71
2022/09/14 09:18:18;;;;;;;5.63;3.22;;;;;;;14.54;91.75;100537.06;4934130;28;20104;-71
2022/09/14 09:21:02;;;;;;;9.02;3.28;;;;;;;14.56;91.45;100531.69;4933195;28;20111;-71
2022/09/14 09:23:32;;;;;;;12.82;4.40;;;;;;;14.55;91.73;100533.47;4933915;28;20040;-71
2022/09/14 09:26:05;;;;;;;10.25;4.53;;;;;;;14.56;92.46;100523.72;4933184;28;20040;-70
2022/09/14 09:28:33;;;;;;;8.75;4.20;;;;;;;14.64;92.80;100534.81;4932928;28;20048;-70
2022/09/14 09:31:06;;;;;;;8.35;4.22;;;;;;;14.70;93.06;100534.50;4934052;28;20044;-71
2022/09/14 09:34:01;;;;;;;8.07;3.90;;;;;;;14.72;92.54;100531.75;4933166;29;20046;-71
2022/09/14 09:36:44;;;;;;;9.25;4.03;;;;;;;14.71;92.99;100528.28;4932648;29;20056;-71
2022/09/14 09:39:11;;;;;;;7.75;4.18;;;;;;;14.75;92.78;100534.28;4932555;28;20576;-71
2022/09/14 09:42:05;;;;;;;6.28;3.72;;;;;;;14.79;93.05;100537.59;4933421;29;20040;-71
2022/09/14 09:45:00;;;;;;;10.77;4.03;;;;;;;14.86;93.46;100539.00;4932542;29;20717;-71
2022/09/14 09:47:38;;;;;;;8.32;3.95;;;;;;;14.88;92.36;100539.78;4933057;28;20040;-70
2022/09/14 09:50:15;;;;;;;7.97;4.40;;;;;;;14.82;92.76;100533.00;4934112;28;20044;-70
2022/09/14 09:52:58;;;;;;;10.32;4.00;;;;;;;14.87;93.48;100532.75;4933738;28;20508;-70
2022/09/14 09:55:38;;;;;;;6.95;4.32;;;;;;;14.90;93.67;100527.28;4932632;29;20057;-70
2022/09/14 09:58:23;;;;;;;13.25;5.22;;;;;;;14.95;94.04;100530.56;4933494;29;20817;-70
2022/09/14 10:01:02;;;;;;;8.95;4.30;;;;;;;15.03;94.45;100525.69;4933677;28;20055;-69
2022/09/14 10:03:39;;;;;;;6.88;4.07;;;;;;;15.13;94.60;100522.53;4933042;28;20109;-70
2022/09/14 10:06:13;;;;;;;8.45;4.57;;;;;;;15.12;94.22;100518.16;4933336;28;20068;-69
2022/09/14 10:08:45;;;;;;;8.80;4.80;;;;;;;15.12;93.76;100521.66;4932853;28;20044;-70
2022/09/14 10:11:36;;;;;;;9.60;4.68;;;;;;;15.09;93.66;100527.16;4933169;28;20488;-70
2022/09/14 10:14:20;;;;;;;7.10;4.40;;;;;;;15.08;93.69;100525.44;4933644;28;20119;-70
2022/09/14 10:16:47;;;;;;;9.50;4.80;;;;;;;15.07;93.81;100515.75;4932221;28;20479;-69
2022/09/14 10:19:22;;;;;;;11.20;5.25;;;;;;;15.06;93.66;100516.69;4934553;28;20051;-70
2022/09/14 10:22:26;;;;;;;8.68;5.43;;;;;;;15.09;93.17;100508.59;4937021;28;20117;-70
2022/09/14 10:25:12;;;;;;;10.02;5.10;;;;;;;15.09;93.93;100505.94;4934423;28;20060;-70
2022/09/14 10:27:48;;;;;;;11.98;5.63;;;;;;;15.13;94.32;100504.81;4924793;29;20040;-70
2022/09/14 10:30:19;;;;;;;14.48;5.97;;;;;;;15.15;94.61;100494.13;4936076;28;20048;-70
2022/09/14 10:33:03;;;;;;;15.07;6.80;;;;;;;15.21;94.63;100493.75;4935862;28;20107;-70
2022/09/14 10:35:44;;;;;;;15.13;7.13;;;;;;;15.19;94.53;100495.63;4929783;29;20048;-70
2022/09/14 10:38:44;;;;;;;11.32;7.15;;;;;;;15.19;94.79;100490.34;4934985;28;20285;-70
2022/09/14 10:41:57;;;;;;;10.88;7.50;;;;;;;15.20;94.72;100489.41;4935337;29;20555;-70
2022/09/14 10:45:04;;;;;;;14.20;8.13;;;;;;;15.16;94.40;100488.72;4936145;29;20397;-69
2022/09/14 10:48:01;;;;;;;13.65;7.05;;;;;;;15.10;94.07;100489.06;4936214;28;20048;-70
2022/09/14 10:51:22;;;;;;;11.95;7.28;;;;;;;15.06;94.17;100490.16;4927651;28;20128;-70
2022/09/14 10:54:37;;;;;;;13.23;6.75;;;;;;;14.97;93.88;100488.84;4922910;29;20040;-70
2022/09/14 10:57:27;;;;;;;13.65;7.70;;;;;;;14.97;94.42;100493.31;4935908;28;20044;-70
2022/09/14 11:00:00;;;;;;;10.65;5.88;;;;;;;15.02;94.92;100507.19;4936186;28;20051;-70
2022/09/14 11:03:10;;;;;;;8.45;5.03;;;;;;;15.05;94.51;100497.28;4936076;29;20048;-69
2022/09/14 11:05:56;;;;;;;9.75;5.28;;;;;;;15.00;94.52;100501.97;4935174;28;20136;-70
2022/09/14 11:08:39;;;;;;;8.23;4.88;;;;;;;15.05;94.76;100507.03;4936276;28;20056;-69
2022/09/14 11:11:36;;;;;;;11.38;4.47;;;;;;;15.05;94.76;100496.41;4935065;28;20040;-69
2022/09/14 11:14:50;;;;;;;8.07;3.95;;;;;;;15.03;94.53;100499.16;4936127;28;20048;-70
2022/09/14 11:17:40;;;;;;;8.63;4.95;;;;;;;14.99;94.68;100505.56;4935466;28;20052;-70
2022/09/14 11:20:50;;;;;;;11.73;5.05;;;;;;;15.01;94.40;100503.69;4934977;29;20067;-69
2022/09/14 11:23:47;;;;;;;7.50;4.13;;;;;;;14.93;94.00;100505.03;4933342;29;20044;-69
2022/09/14 11:26:30;;;;;;;10.95;4.80;;;;;;;14.92;93.88;100501.53;4916653;29;20037;-69
2022/09/14 11:29:34;;;;;;;7.63;5.20;;;;;;;14.88;93.65;100513.22;4920970;29;20092;-69
2022/09/14 11:32:12;;;;;;;8.68;3.95;;;;;;;14.82;93.43;100505.63;4935240;28;20053;-69
2022/09/14 11:35:02;;;;;;;9.00;3.33;;;;;;;14.74;93.52;100503.38;4935168;28;20151;-69
2022/09/14 11:37:43;;;;;;;7.47;2.88;;;;;;;14.70;92.60;100505.31;4935599;28;20135;-68
2022/09/14 11:40:22;;;;;;;7.47;3.15;;;;;;;14.65;92.01;100495.88;4934522;28;20504;-68
2022/09/14 11:43:15;;;;;;;8.27;4.13;;;;;;;14.57;92.33;100499.78;4916362;29;20049;-68
2022/09/14 11:45:51;;;;;;;11.30;4.82;;;;;;;14.52;93.18;100496.50;4918772;28;20051;-68
2022/09/14 11:48:29;;;;;;;9.27;4.70;;;;;;;14.54;93.67;100505.25;4934526;29;20059;-68
2022/09/14 11:51:19;;;;;;;11.48;5.75;;;;;;;14.53;93.89;100500.88;4933959;28;20040;-69
2022/09/14 11:53:46;;;;;;;;;;;;;;;14.51;94.58;100499.25;4933605;28;20049;-69
2022/09/14 11:56:29;;;;;;;15.00;6.15;;;;;;;14.62;95.46;100498.66;4934721;29;19927;-69
2022/09/14 11:59:06;;;;;;;13.10;6.15;;;;;;;14.72;95.94;100502.56;4924648;28;20045;-70
2022/09/14 12:01:40;;;;;;;13.27;7.25;;;;;;;14.77;95.62;100507.63;4916272;29;20052;-69
2022/09/14 12:04:15;;;;;;;12.73;7.30;;;;;;;14.80;95.99;100503.06;4916337;29;20044;-69
2022/09/14 12:06:53;;;;;;;12.15;7.32;;;;;;;14.88;96.36;100503.50;4916602;29;20088;-69